Kittitas, WA (98934)

7:38 AM PDT on September 02, 2014 (GMT -0700)
Grasslands | Change Station
CLOSE
Current Station
Personal Weather Station
Location: Ellensburg, WA
Elevation: 1550 ft
Nearby Weather Stations

Elev 1550 ft 46.99 °N, 120.51 °W | Updated 6 minutes ago

Clear
Clear
49.7 °F
Feels Like 50 °F
N
0.0
Wind Variable Wind from SSE
Gusts 1.1 mph

Today
High -- | Low -- °F
--% Chance of Precip.
Yesterday
High -- | Low -- °F
Precip. -- in
6:22 AM 7:39 PM
First Quarter, 52% visible
Pressure 29.86 in
Visibility 10.0 miles
Clouds Clear
Windchill 50 °F
Dew Point 45 °F
Humidity 85%
Rainfall -999.00 in
Snow Depth 0 in , 0 in
UV 0 out of 12
Pollen 4.30 out of 12
Air Quality Not available.
Flu Activity Not available.
METAR KELN 021353Z AUTO 30009KT 10SM CLR 12/09 A2988 RMK AO2 SLP111 T01220089

More Conditions Fewer Conditions

Pressure 29.86 in
Visibility 10.0 miles
Clouds Clear
Windchill 50 °F
Dew Point 45 °F
Humidity 85%
Rainfall -999.00 in
Snow Depth 0 in , 0 in
UV 0 out of 12
Pollen 4.30 out of 12
Air Quality Not available.
Flu Activity Not available.
METAR KELN 021353Z AUTO 30009KT 10SM CLR 12/09 A2988 RMK AO2 SLP111 T01220089

More Conditions Fewer Conditions

10-Day Weather Forecast

Almanac

Astronomy

Sep. 02, 2014 Rise Set
Actual Time 6:22 AM PDT 7:39 PM PDT
Civil Twilight 5:51 AM PDT 8:10 PM PDT
Nautical Twilight 5:13 AM PDT 8:48 PM PDT
Astronomical Twilight 4:32 AM PDT 9:28 PM PDT
Moon 2:39 PM PDT No Moon Set
Length of Visible Light 14h 19m
Length of Day
13h 16m
Tomorrow will be 3m 15s shorter.
First Quarter, 52% of the Moon is Illuminated
Today
First Quarter
Sep 8
Full
Sep 15
Last Quarter
Sep 24
New
Oct 1
First Quarter

Today's Extremes

State Highs State Lows

Community

WunderPhotos

Upload Photos

1,749,682 photos uploaded!

WunderBlogs® & News

Nearby

Snow Depth

Station Depth Elevation
Grouse Camp 0 in 5380 ft
Upper Wheeler 0 in 4400 ft
Blewett Pass 0 in 4270 ft
Sasse Ridge 0 in 4200 ft
Green Lake 0 in 6000 ft

Earthquake Activity

City Distance Mag. Time & Date
No recent earthquake activity has been reported nearby.
Minimum magnitude displayed is 2.5.

Coastal Water Temperatures

Place Temperature
No Stations Reporting

Nearby Weather Stations